I-5 : North of Roth Rd Atmospheric Data: 03/22/2019 Summary  Detailed Graphs  Station List

  Temperature     Wind Precipitation Visibility
Timestamp Air Wet
Bulb
Dew-
point
24-hr
Max
24-hr
Min
Relative
Humidity
Atmospheric
Pressure
Avg
Speed
Avg
Dir
Spot
Speed
Spot
Dir
Max
Speed
Max
Dir
  Rate Situation Start End 1 hr 3 hr 6 hr 12 hr 24 hr   Situation
Date Time °F °F °F °F °F % in Hg mph ° mph ° mph ° Y/N in/hr text Date Time Date Time in in in in in mi text
03/22/2019 12:10 AM 49.10 45.86 42.80 64.94 44.42 79.0 30.11 5.82 W 8.50 W 7.83 W No 0.000 No Precipitation 03/20/2019 02:59 PM 03/20/2019 03:29 PM 0.000 0.000 0.000 0.000 0.000 1.24 Clear
03/22/2019 12:20 AM 49.46 46.04 42.80 64.94 44.42 78.0 30.11 4.92 W 3.80 W 8.72 W No 0.000 No Precipitation 03/20/2019 02:59 PM 03/20/2019 03:29 PM 0.000 0.000 0.000 0.000 0.000 1.24 Clear
03/22/2019 12:30 AM 48.56 45.50 42.26 64.94 44.42 79.0 30.12 4.03 W 3.58 SW 6.49 W No 0.000 No Precipitation 03/20/2019 02:59 PM 03/20/2019 03:29 PM 0.000 0.000 0.000 0.000 0.000 1.24 Clear
03/22/2019 12:40 AM 49.10 46.04 42.98 64.94 44.42 80.0 30.12 3.58 SW 3.58 SW 4.92 SW No 0.000 No Precipitation 03/20/2019 02:59 PM 03/20/2019 03:29 PM 0.000 0.000 0.000 0.000 0.000 1.24 Clear
03/22/2019 12:50 AM 49.10 45.68 42.44 64.94 44.42 78.0 30.12 4.92 SW 5.37 SW 6.93 W No 0.000 No Precipitation 03/20/2019 02:59 PM 03/20/2019 03:29 PM 0.000 0.000 0.000 0.000 0.000 1.24 Clear
03/22/2019 01:00 AM 48.02 45.32 42.44 64.94 44.42 81.0 30.12 7.16 W 7.61 W 10.07 W No 0.000 No Precipitation 03/20/2019 02:59 PM 03/20/2019 03:29 PM 0.000 0.000 0.000 0.000 0.000 1.24 Clear
03/22/2019 01:10 AM 49.64 46.58 43.52 64.94 44.42 80.0 30.11 6.93 W 4.70 SW 11.86 W No 0.000 No Precipitation 03/20/2019 02:59 PM 03/20/2019 03:29 PM 0.000 0.000 0.000 0.000 0.000 1.24 Clear
03/22/2019 01:20 AM 49.28 46.58 43.88 64.94 44.42 82.0 30.12 7.16 W 6.49 W 11.18 W No 0.000 No Precipitation 03/20/2019 02:59 PM 03/20/2019 03:29 PM 0.000 0.000 0.000 0.000 0.000 1.24 Clear
03/22/2019 01:30 AM 49.28 46.58 43.88 64.94 44.42 81.0 30.12 7.16 W 7.38 W 11.63 W No 0.000 No Precipitation 03/20/2019 02:59 PM 03/20/2019 03:29 PM 0.000 0.000 0.000 0.000 0.000 1.24 Clear
03/22/2019 01:50 AM 48.92 46.22 43.70 64.94 44.42 82.0 30.13 6.26 W 7.16 W 9.17 W No 0.000 No Precipitation 03/20/2019 02:59 PM 03/20/2019 03:29 PM 0.000 0.000 0.000 0.000 0.000 1.24 Clear
03/22/2019 02:00 AM 49.28 46.22 43.16 64.94 44.42 80.0 30.13 5.59 W 6.04 W 10.07 W No 0.000 No Precipitation 03/20/2019 02:59 PM 03/20/2019 03:29 PM 0.000 0.000 0.000 0.000 0.000 1.24 Clear
03/22/2019 02:10 AM 48.74 46.04 43.34 64.94 44.42 82.0 30.13 4.03 W 4.03 W 7.61 W No 0.000 No Precipitation 03/20/2019 02:59 PM 03/20/2019 03:29 PM 0.000 0.000 0.000 0.000 0.000 1.24 Clear
03/22/2019 02:20 AM 48.02 45.68 43.52 64.94 44.42 85.0 30.13 3.36 W 4.03 W 5.37 W No 0.000 No Precipitation 03/20/2019 02:59 PM 03/20/2019 03:29 PM 0.000 0.000 0.000 0.000 0.000 1.24 Clear
03/22/2019 02:30 AM 47.30 45.50 43.52 64.94 44.42 87.0 30.13 5.59 W 6.04 W 7.16 W No 0.000 No Precipitation 03/20/2019 02:59 PM 03/20/2019 03:29 PM 0.000 0.000 0.000 0.000 0.000 1.24 Clear
03/22/2019 02:40 AM 47.30 45.32 43.16 64.94 44.42 85.0 30.13 4.70 NW 4.92 NW 6.49 NW No 0.000 No Precipitation 03/20/2019 02:59 PM 03/20/2019 03:29 PM 0.000 0.000 0.000 0.000 0.000 1.24 Clear
03/22/2019 02:50 AM 48.02 45.50 42.98 64.94 44.42 82.0 30.13 4.03 NW 4.47 NW 5.59 NW No 0.000 No Precipitation 03/20/2019 02:59 PM 03/20/2019 03:29 PM 0.000 0.000 0.000 0.000 0.000 1.24 Clear
03/22/2019 03:00 AM 48.56 45.68 42.80 64.94 44.42 81.0 30.13 4.47 NW 3.80 NW 5.59 NW No 0.000 No Precipitation 03/20/2019 02:59 PM 03/20/2019 03:29 PM 0.000 0.000 0.000 0.000 0.000 1.24 Clear
03/22/2019 03:10 AM 49.10 45.86 42.62 64.94 44.42 79.0 30.13 4.70 NW 4.92 N 6.49 NW No 0.000 No Precipitation 03/20/2019 02:59 PM 03/20/2019 03:29 PM 0.000 0.000 0.000 0.000 0.000 1.24 Clear
03/22/2019 03:20 AM 49.82 46.58 43.34 64.94 44.42 78.0 30.12 6.04 N 7.38 N 8.72 N No 0.000 No Precipitation 03/20/2019 02:59 PM 03/20/2019 03:29 PM 0.000 0.000 0.000 0.000 0.000 1.24 Clear
03/22/2019 03:30 AM 49.28 46.04 42.80 64.94 44.42 79.0 30.13 3.58 NE 4.70 NE 8.05 N No 0.000 No Precipitation 03/20/2019 02:59 PM 03/20/2019 03:29 PM 0.000 0.000 0.000 0.000 0.000 1.24 Clear
03/22/2019 03:40 AM 48.02 45.50 42.80 64.94 44.42 83.0 30.12 3.13 NE 2.24 E 6.26 NE No 0.000 No Precipitation 03/20/2019 02:59 PM 03/20/2019 03:29 PM 0.000 0.000 0.000 0.000 0.000 1.24 Clear
03/22/2019 03:50 AM 48.02 45.68 43.16 64.94 44.42 83.0 30.12 3.80 E 4.70 E 6.04 E No 0.000 No Precipitation 03/20/2019 02:59 PM 03/20/2019 03:29 PM 0.000 0.000 0.000 0.000 0.000 1.24 Clear
03/22/2019 04:10 AM 48.02 45.68 43.16 64.94 44.42 83.0 30.12 3.13 E 3.36 NE 6.04 E No 0.000 No Precipitation 03/20/2019 02:59 PM 03/20/2019 03:29 PM 0.000 0.000 0.000 0.000 0.000 1.24 Clear
03/22/2019 04:20 AM 48.38 45.68 42.98 64.94 44.42 82.0 30.12 3.13 E 3.58 E 6.04 E No 0.000 No Precipitation 03/20/2019 02:59 PM 03/20/2019 03:29 PM 0.000 0.000 0.000 0.000 0.000 1.24 Clear
03/22/2019 04:30 AM 48.20 45.68 43.16 64.94 44.42 82.0 30.13 2.68 E 3.13 SE 4.92 SE No 0.000 No Precipitation 03/20/2019 02:59 PM 03/20/2019 03:29 PM 0.000 0.000 0.000 0.000 0.000 1.24 Clear
03/22/2019 04:40 AM 48.20 45.50 42.98 64.94 44.42 82.0 30.12 3.13 E 3.36 E 9.84 NE No 0.000 No Precipitation 03/20/2019 02:59 PM 03/20/2019 03:29 PM 0.000 0.000 0.000 0.000 0.000 1.24 Clear
03/22/2019 04:50 AM 48.02 45.50 42.98 64.94 44.42 83.0 30.12 3.36 E 4.25 NE 5.82 E No 0.000 No Precipitation 03/20/2019 02:59 PM 03/20/2019 03:29 PM 0.000 0.000 0.000 0.000 0.000 1.24 Clear
03/22/2019 05:10 AM 47.66 45.32 42.98 64.94 44.42 84.0 30.12 3.13 E 0.00 N 5.82 SE No 0.000 No Precipitation 03/20/2019 02:59 PM 03/20/2019 03:29 PM 0.000 0.000 0.000 0.000 0.000 1.24 Clear
03/22/2019 05:20 AM 47.84 45.50 42.98 64.94 44.42 83.0 30.13 2.24 E 2.24 N 8.95 NE No 0.000 No Precipitation 03/20/2019 02:59 PM 03/20/2019 03:29 PM 0.000 0.000 0.000 0.000 0.000 1.24 Clear
03/22/2019 05:31 AM 45.86 44.60 42.80 64.94 44.42 89.0 30.13 2.68 NW 1.12 N 9.62 N No 0.000 No Precipitation 03/20/2019 02:59 PM 03/20/2019 03:29 PM 0.000 0.000 0.000 0.000 0.000 1.24 Clear
03/22/2019 05:41 AM 47.84 45.50 43.16 64.94 44.42 83.0 30.13 2.46 SE 1.79 SE 7.61 N No 0.000 No Precipitation 03/20/2019 02:59 PM 03/20/2019 03:29 PM 0.000 0.000 0.000 0.000 0.000 1.24 Clear
03/22/2019 05:51 AM 48.02 45.50 42.98 64.94 44.42 83.0 30.13 2.68 SE 2.24 E 6.49 E No 0.000 No Precipitation 03/20/2019 02:59 PM 03/20/2019 03:29 PM 0.000 0.000 0.000 0.000 0.000 1.24 Clear
03/22/2019 06:01 AM 48.20 45.68 43.16 64.94 44.42 83.0 30.12 2.91 SE 2.01 SE 6.71 E No 0.000 No Precipitation 03/20/2019 02:59 PM 03/20/2019 03:29 PM 0.000 0.000 0.000 0.000 0.000 1.24 Clear
03/22/2019 06:11 AM 48.02 45.50 43.16 64.94 44.42 83.0 30.12 2.68 SE 0.00 N 5.82 NE No 0.000 No Precipitation 03/20/2019 02:59 PM 03/20/2019 03:29 PM 0.000 0.000 0.000 0.000 0.000 1.24 Clear
03/22/2019 06:21 AM 48.02 45.68 43.34 64.94 44.42 84.0 30.12 2.24 SE 1.34 N 6.93 NE No 0.000 No Precipitation 03/20/2019 02:59 PM 03/20/2019 03:29 PM 0.000 0.000 0.000 0.000 0.000 1.24 Clear
03/22/2019 06:31 AM 48.02 45.50 43.16 64.94 44.42 84.0 30.13 2.46 SE 5.59 SE 7.83 NE No 0.000 No Precipitation 03/20/2019 02:59 PM 03/20/2019 03:29 PM 0.000 0.000 0.000 0.000 0.000 1.24 Clear
03/22/2019 06:41 AM 48.02 45.68 43.34 64.94 44.42 84.0 30.13 2.68 SE 1.79 SE 7.38 E No 0.000 No Precipitation 03/20/2019 02:59 PM 03/20/2019 03:29 PM 0.000 0.000 0.000 0.000 0.000 1.24 Clear
03/22/2019 06:51 AM 48.20 45.86 43.34 64.94 44.42 83.0 30.13 2.01 E 0.00 SW 5.82 NE No 0.000 No Precipitation 03/20/2019 02:59 PM 03/20/2019 03:29 PM 0.000 0.000 0.000 0.000 0.000 1.24 Clear
03/22/2019 07:01 AM 48.20 45.68 43.16 64.94 44.42 83.0 30.13 2.91 SE 1.79 N 7.38 N No 0.000 No Precipitation 03/20/2019 02:59 PM 03/20/2019 03:29 PM 0.000 0.000 0.000 0.000 0.000 1.24 Clear
03/22/2019 07:11 AM 48.02 45.68 43.16 64.94 44.42 84.0 30.13 2.91 SE 3.36 SE 6.93 SE No 0.000 No Precipitation 03/20/2019 02:59 PM 03/20/2019 03:29 PM 0.000 0.000 0.000 0.000 0.000 1.24 Clear
03/22/2019 07:21 AM 48.38 46.04 43.52 64.94 44.42 83.0 30.13 3.36 S 3.13 S 5.82 S No 0.000 No Precipitation 03/20/2019 02:59 PM 03/20/2019 03:29 PM 0.000 0.000 0.000 0.000 0.000 1.24 Clear
03/22/2019 07:41 AM 48.56 46.04 43.52 64.94 44.42 83.0 30.13 2.68 S 1.79 SW 6.49 SE No 0.000 No Precipitation 03/20/2019 02:59 PM 03/20/2019 03:29 PM 0.000 0.000 0.000 0.000 0.000 1.24 Clear
03/22/2019 07:51 AM 48.38 45.32 43.34 64.94 44.42 85.0 30.13 2.91 N 2.46 W 7.61 NE No 0.000 No Precipitation 03/20/2019 02:59 PM 03/20/2019 03:29 PM 0.000 0.000 0.000 0.000 0.000 1.24 Clear
03/22/2019 08:01 AM 47.12 46.04 44.60 64.94 44.42 89.0 30.13 3.36 N 4.25 N 8.50 NW No 0.000 No Precipitation 03/20/2019 02:59 PM 03/20/2019 03:29 PM 0.000 0.000 0.000 0.000 0.000 1.24 Clear
03/22/2019 08:11 AM 45.68 44.78 43.70 64.94 44.42 93.0 30.14 3.80 SW 3.36 SW 8.95 N No 0.000 No Precipitation 03/20/2019 02:59 PM 03/20/2019 03:29 PM 0.000 0.000 0.000 0.000 0.000 1.24 Clear
03/22/2019 08:21 AM 46.58 45.50 44.24 64.94 44.42 92.0 30.14 2.01 SW 5.14 NE 5.37 SW No 0.000 No Precipitation 03/20/2019 02:59 PM 03/20/2019 03:29 PM 0.000 0.000 0.000 0.000 0.000 1.24 Clear
03/22/2019 08:31 AM 48.20 46.58 44.60 64.94 44.78 87.0 30.14 2.24 W 2.68 S 7.83 N No 0.000 No Precipitation 03/20/2019 02:59 PM 03/20/2019 03:29 PM 0.000 0.000 0.000 0.000 0.000 1.24 Clear
03/22/2019 08:41 AM 48.92 46.58 44.24 64.94 44.96 83.0 30.14 2.91 SE 3.36 SE 6.49 S No 0.000 No Precipitation 03/20/2019 02:59 PM 03/20/2019 03:29 PM 0.000 0.000 0.000 0.000 0.000 1.24 Clear
03/22/2019 08:51 AM 49.28 46.94 44.24 64.94 44.96 83.0 30.13 4.47 SE 3.36 SE 7.61 SE No 0.000 No Precipitation 03/20/2019 02:59 PM 03/20/2019 03:29 PM 0.000 0.000 0.000 0.000 0.000 1.24 Clear
03/22/2019 09:02 AM 49.82 46.76 44.06 64.94 44.96 81.0 30.13 4.47 E 6.26 E 7.16 E No 0.000 No Precipitation 03/20/2019 02:59 PM 03/20/2019 03:29 PM 0.000 0.000 0.000 0.000 0.000 1.24 Clear
03/22/2019 09:11 AM 50.18 47.12 44.42 64.94 45.68 81.0 30.13 3.80 E 3.80 E 7.38 E No 0.000 No Precipitation 03/20/2019 02:59 PM 03/20/2019 03:29 PM 0.000 0.000 0.000 0.000 0.000 1.24 Clear
03/22/2019 09:21 AM 50.54 47.30 44.24 64.94 45.68 79.0 30.13 4.47 SE 6.04 SE 8.05 SE No 0.000 No Precipitation 03/20/2019 02:59 PM 03/20/2019 03:29 PM 0.000 0.000 0.000 0.000 0.000 1.24 Clear
03/22/2019 09:41 AM 50.90 47.84 44.96 64.94 45.68 80.0 30.14 3.58 SE 3.36 SW 8.50 E No 0.000 No Precipitation 03/20/2019 02:59 PM 03/20/2019 03:29 PM 0.000 0.000 0.000 0.000 0.000 1.24 Clear
03/22/2019 09:51 AM 51.08 47.84 44.78 64.94 45.68 79.0 30.15 2.01 SE 4.70 NW 6.71 N No 0.000 No Precipitation 03/20/2019 02:59 PM 03/20/2019 03:29 PM 0.000 0.000 0.000 0.000 0.000 1.24 Clear
03/22/2019 10:01 AM 52.16 48.38 44.78 64.94 45.68 76.0 30.15 1.57 W 1.79 NE 7.83 N No 0.000 No Precipitation 03/20/2019 02:59 PM 03/20/2019 03:29 PM 0.000 0.000 0.000 0.000 0.000 1.24 Clear
03/22/2019 10:11 AM 52.70 48.38 44.60 64.94 45.68 74.0 30.15 3.80 SE 2.91 SE 7.61 NE No 0.000 No Precipitation 03/20/2019 02:59 PM 03/20/2019 03:29 PM 0.000 0.000 0.000 0.000 0.000 1.24 Clear
03/22/2019 10:31 AM 52.52 48.92 46.04 64.94 45.68 78.0 30.15 4.25 N 1.79 N 10.07 N No 0.000 No Precipitation 03/20/2019 02:59 PM 03/20/2019 03:29 PM 0.000 0.000 0.000 0.000 0.000 1.24 Clear
03/22/2019 10:41 AM 53.78 48.92 44.60 64.94 45.68 71.0 30.15 3.58 E 3.36 E 7.83 E No 0.000 No Precipitation 03/20/2019 02:59 PM 03/20/2019 03:29 PM 0.000 0.000 0.000 0.000 0.000 1.24 Clear
03/22/2019 10:51 AM 54.14 49.10 44.42 64.94 45.68 70.0 30.15 4.03 SE 5.14 SE 6.93 E No 0.000 No Precipitation 03/20/2019 02:59 PM 03/20/2019 03:29 PM 0.000 0.000 0.000 0.000 0.000 1.24 Clear
03/22/2019 11:01 AM 54.68 49.46 44.60 64.94 45.68 69.0 30.16 2.24 E 3.58 SE 11.41 NE No 0.000 No Precipitation 03/20/2019 02:59 PM 03/20/2019 03:29 PM 0.000 0.000 0.000 0.000 0.000 1.24 Clear
03/22/2019 11:11 AM 54.86 49.64 44.78 64.94 45.68 69.0 30.16 3.36 NE 2.24 NE 8.95 NE No 0.000 No Precipitation 03/20/2019 02:59 PM 03/20/2019 03:29 PM 0.000 0.000 0.000 0.000 0.000 1.24 Clear
03/22/2019 11:21 AM 55.40 50.18 45.32 64.94 45.68 69.0 30.16 3.80 N 2.68 NW 7.61 E No 0.000 No Precipitation 03/20/2019 02:59 PM 03/20/2019 03:29 PM 0.000 0.000 0.000 0.000 0.000 1.24 Clear
03/22/2019 11:31 AM 55.94 50.18 44.96 64.94 45.68 66.0 30.17 2.46 N 2.68 SE 8.72 NE No 0.000 No Precipitation 03/20/2019 02:59 PM 03/20/2019 03:29 PM 0.000 0.000 0.000 0.000 0.000 1.24 Clear
03/22/2019 11:41 AM 56.30 50.36 44.42 64.94 45.68 65.0 30.17 2.24 NE 2.68 NE 8.28 NE No 0.000 No Precipitation 03/20/2019 02:59 PM 03/20/2019 03:29 PM 0.000 0.000 0.000 0.000 0.000 1.24 Clear
03/22/2019 11:51 AM 57.20 50.36 44.24 64.94 45.68 62.0 30.17 3.36 SE 2.24 SE 9.40 SE No 0.000 No Precipitation 03/20/2019 02:59 PM 03/20/2019 03:29 PM 0.000 0.000 0.000 0.000 0.000 1.24 Clear
03/22/2019 12:01 PM 57.02 50.36 44.06 64.94 45.68 62.0 30.17 4.92 N 3.58 SE 10.51 N No 0.000 No Precipitation 03/20/2019 02:59 PM 03/20/2019 03:29 PM 0.000 0.000 0.000 0.000 0.000 1.24 Clear
03/22/2019 12:11 PM 58.28 50.36 42.98 64.94 45.68 57.0 30.17 2.24 E 6.71 SE 8.28 NE No 0.000 No Precipitation 03/20/2019 02:59 PM 03/20/2019 03:29 PM 0.000 0.000 0.000 0.000 0.000 1.24 Clear
03/22/2019 12:31 PM 58.64 50.72 42.98 64.94 45.68 56.0 30.17 4.03 NE 3.13 E 10.51 NE No 0.000 No Precipitation 03/20/2019 02:59 PM 03/20/2019 03:29 PM 0.000 0.000 0.000 0.000 0.000 1.24 Clear
03/22/2019 12:41 PM 59.00 50.36 42.98 64.94 45.68 54.0 30.17 2.68 SW 2.01 S 11.41 N No 0.000 No Precipitation 03/20/2019 02:59 PM 03/20/2019 03:29 PM 0.000 0.000 0.000 0.000 0.000 1.24 Clear
03/22/2019 12:51 PM 59.54 50.72 42.26 64.94 45.68 53.0 30.17 2.91 SW 2.24 NW 6.93 NW No 0.000 No Precipitation 03/20/2019 02:59 PM 03/20/2019 03:29 PM 0.000 0.000 0.000 0.000 0.000 1.24 Clear
03/22/2019 01:01 PM 60.26 50.72 41.54 64.94 45.68 50.0 30.17 3.58 SE 3.80 SE 10.29 N No 0.000 No Precipitation 03/20/2019 02:59 PM 03/20/2019 03:29 PM 0.000 0.000 0.000 0.000 0.000 1.24 Clear
03/22/2019 01:11 PM 60.44 50.54 41.72 64.94 45.68 49.0 30.17 3.13 SE 2.24 SW 9.40 SE No 0.000 No Precipitation 03/20/2019 02:59 PM 03/20/2019 03:29 PM 0.000 0.000 0.000 0.000 0.000 1.24 Clear
03/22/2019 01:21 PM 60.80 51.08 41.72 64.94 45.68 49.0 30.17 3.13 S 2.68 SE 15.88 NE No 0.000 No Precipitation 03/20/2019 02:59 PM 03/20/2019 03:29 PM 0.000 0.000 0.000 0.000 0.000 1.24 Clear
03/22/2019 01:31 PM 61.16 51.08 41.18 64.94 45.68 48.0 30.17 3.80 SE 6.26 SE 9.17 SE No 0.000 No Precipitation 03/20/2019 02:59 PM 03/20/2019 03:29 PM 0.000 0.000 0.000 0.000 0.000 1.24 Clear
03/22/2019 01:41 PM 61.52 51.26 42.08 64.94 45.68 49.0 30.17 4.92 SE 5.37 SE 8.95 SE No 0.000 No Precipitation 03/20/2019 02:59 PM 03/20/2019 03:29 PM 0.000 0.000 0.000 0.000 0.000 1.24 Clear
03/22/2019 01:51 PM 61.88 51.44 42.44 64.94 45.68 48.0 30.16 3.58 SE 7.83 S 8.50 N No 0.000 No Precipitation 03/20/2019 02:59 PM 03/20/2019 03:29 PM 0.000 0.000 0.000 0.000 0.000 1.24 Clear
03/22/2019 02:01 PM 60.98 51.26 42.08 64.94 45.68 50.0 30.16 2.01 S 2.68 S 9.40 SE No 0.000 No Precipitation 03/20/2019 02:59 PM 03/20/2019 03:29 PM 0.000 0.000 0.000 0.000 0.000 1.24 Clear
03/22/2019 02:11 PM 62.24 51.98 42.80 64.94 45.68 49.0 30.16 3.80 SE 3.36 SW 8.05 S No 0.000 No Precipitation 03/20/2019 02:59 PM 03/20/2019 03:29 PM 0.000 0.000 0.000 0.000 0.000 1.24 Clear
03/22/2019 02:21 PM 62.24 51.98 42.80 64.94 45.68 50.0 30.16 3.36 SE 4.03 SE 9.84 NE No 0.000 No Precipitation 03/20/2019 02:59 PM 03/20/2019 03:29 PM 0.000 0.000 0.000 0.000 0.000 1.24 Clear
03/22/2019 02:31 PM 62.42 51.98 42.62 64.94 45.68 48.0 30.16 3.80 SE 2.91 SE 8.72 SE No 0.000 No Precipitation 03/20/2019 02:59 PM 03/20/2019 03:29 PM 0.000 0.000 0.000 0.000 0.000 1.24 Clear
03/22/2019 02:41 PM 62.60 52.16 42.80 64.94 45.68 48.0 30.15 3.13 E 2.46 N 8.95 NE No 0.000 No Precipitation 03/20/2019 02:59 PM 03/20/2019 03:29 PM 0.000 0.000 0.000 0.000 0.000 1.24 Clear
03/22/2019 02:51 PM 62.96 51.26 40.64 64.94 45.68 44.0 30.15 2.46 E 4.47 SE 7.83 SE No 0.000 No Precipitation 03/20/2019 02:59 PM 03/20/2019 03:29 PM 0.000 0.000 0.000 0.000 0.000 1.24 Clear
03/22/2019 03:01 PM 63.14 51.80 41.18 64.94 45.68 45.0 30.15 2.91 SE 5.14 SE 9.17 SE No 0.000 No Precipitation 03/20/2019 02:59 PM 03/20/2019 03:29 PM 0.000 0.000 0.000 0.000 0.000 1.24 Clear
03/22/2019 03:11 PM 63.50 51.26 40.10 64.94 45.68 42.0 30.14 6.93 E 5.82 E 11.41 E No 0.000 No Precipitation 03/20/2019 02:59 PM 03/20/2019 03:29 PM 0.000 0.000 0.000 0.000 0.000 1.24 Clear
03/22/2019 03:21 PM 63.50 51.44 39.74 64.94 45.68 42.0 30.14 4.47 SE 5.37 E 10.74 SE No 0.000 No Precipitation 03/20/2019 02:59 PM 03/20/2019 03:29 PM 0.000 0.000 0.000 0.000 0.000 1.24 Clear
03/22/2019 03:31 PM 63.86 51.98 41.00 64.94 45.68 43.0 30.14 7.38 SE 8.95 SE 12.30 SE No 0.000 No Precipitation 03/20/2019 02:59 PM 03/20/2019 03:29 PM 0.000 0.000 0.000 0.000 0.000 1.24 Clear
03/22/2019 03:41 PM 65.12 52.16 40.82 65.30 45.68 41.0 30.14 9.17 SE 7.16 SE 12.30 SE No 0.000 No Precipitation 03/20/2019 02:59 PM 03/20/2019 03:29 PM 0.000 0.000 0.000 0.000 0.000 1.24 Clear
03/22/2019 03:51 PM 64.58 52.34 41.00 65.30 45.68 42.0 30.13 7.38 SE 7.61 SE 12.97 SE No 0.000 No Precipitation 03/20/2019 02:59 PM 03/20/2019 03:29 PM 0.000 0.000 0.000 0.000 0.000 1.24 Clear
03/22/2019 04:01 PM 64.58 51.80 39.56 65.30 45.68 40.0 30.13 7.38 SE 9.17 SE 13.65 SE No 0.000 No Precipitation 03/20/2019 02:59 PM 03/20/2019 03:29 PM 0.000 0.000 0.000 0.000 0.000 1.24 Clear
03/22/2019 04:11 PM 64.94 52.16 40.46 65.30 45.68 41.0 30.13 7.16 SE 3.80 SE 12.30 SE No 0.000 No Precipitation 03/20/2019 02:59 PM 03/20/2019 03:29 PM 0.000 0.000 0.000 0.000 0.000 1.24 Clear
03/22/2019 04:21 PM 65.30 52.52 39.92 65.30 45.68 40.0 30.13 4.25 SE 3.36 E 11.86 E No 0.000 No Precipitation 03/20/2019 02:59 PM 03/20/2019 03:29 PM 0.000 0.000 0.000 0.000 0.000 1.24 Clear
03/22/2019 04:31 PM 65.48 51.80 38.84 65.66 45.68 38.0 30.13 7.83 SE 4.70 E 11.41 SE No 0.000 No Precipitation 03/20/2019 02:59 PM 03/20/2019 03:29 PM 0.000 0.000 0.000 0.000 0.000 1.24 Clear
03/22/2019 04:41 PM 65.30 52.70 40.82 65.66 45.68 41.0 30.12 4.70 SE 1.34 SE 11.41 E No 0.000 No Precipitation 03/20/2019 02:59 PM 03/20/2019 03:29 PM 0.000 0.000 0.000 0.000 0.000 1.24 Clear
03/22/2019 04:51 PM 65.12 51.80 39.56 65.66 45.68 39.0 30.12 5.14 SE 5.37 S 10.96 SE No 0.000 No Precipitation 03/20/2019 02:59 PM 03/20/2019 03:29 PM 0.000 0.000 0.000 0.000 0.000 1.24 Clear
03/22/2019 05:01 PM 65.30 52.34 40.64 65.66 45.68 41.0 30.12 5.14 SE 6.26 SE 8.50 SE No 0.000 No Precipitation 03/20/2019 02:59 PM 03/20/2019 03:29 PM 0.000 0.000 0.000 0.000 0.000 1.24 Clear
03/22/2019 05:11 PM 65.12 52.88 41.72 65.66 45.68 43.0 30.12 4.70 SE 7.38 SE 9.17 E No 0.000 No Precipitation 03/20/2019 02:59 PM 03/20/2019 03:29 PM 0.000 0.000 0.000 0.000 0.000 1.24 Clear
03/22/2019 05:21 PM 64.04 53.06 43.52 65.66 45.68 47.0 30.12 2.91 W 2.01 NE 7.83 SE No 0.000 No Precipitation 03/20/2019 02:59 PM 03/20/2019 03:29 PM 0.000 0.000 0.000 0.000 0.000 1.24 Clear
03/22/2019 05:31 PM 63.50 51.62 41.54 65.66 45.68 45.0 30.12 3.58 SW 3.13 SW 9.40 SE No 0.000 No Precipitation 03/20/2019 02:59 PM 03/20/2019 03:29 PM 0.000 0.000 0.000 0.000 0.000 1.24 Clear
03/22/2019 05:41 PM 62.78 52.16 42.26 65.66 45.68 48.0 30.12 2.24 W 1.79 W 4.47 SW No 0.000 No Precipitation 03/20/2019 02:59 PM 03/20/2019 03:29 PM 0.000 0.000 0.000 0.000 0.000 1.24 Clear
03/22/2019 05:51 PM 61.70 52.88 45.14 65.66 45.68 56.0 30.12 2.68 W 4.70 W 6.93 N No 0.000 No Precipitation 03/20/2019 02:59 PM 03/20/2019 03:29 PM 0.000 0.000 0.000 0.000 0.000 1.24 Clear
03/22/2019 06:01 PM 60.98 53.78 46.58 65.66 45.68 63.0 30.11 4.92 W 6.04 W 6.93 W No 0.000 No Precipitation 03/20/2019 02:59 PM 03/20/2019 03:29 PM 0.000 0.000 0.000 0.000 0.000 1.24 Clear
03/22/2019 06:11 PM 59.54 54.14 49.64 65.66 45.68 71.0 30.12 5.59 W 6.26 NW 8.28 W No 0.000 No Precipitation 03/20/2019 02:59 PM 03/20/2019 03:29 PM 0.000 0.000 0.000 0.000 0.000 1.24 Clear
03/22/2019 06:31 PM 57.74 53.42 50.54 65.66 45.68 77.0 30.12 5.59 NW 3.80 NW 8.05 NW No 0.000 No Precipitation 03/20/2019 02:59 PM 03/20/2019 03:29 PM 0.000 0.000 0.000 0.000 0.000 1.24 Clear
03/22/2019 06:41 PM 57.38 53.96 51.62 65.66 45.68 81.0 30.11 4.25 NW 5.59 NW 7.16 W No 0.000 No Precipitation 03/20/2019 02:59 PM 03/20/2019 03:29 PM 0.000 0.000 0.000 0.000 0.000 1.24 Clear
03/22/2019 06:51 PM 56.84 54.50 51.80 65.66 45.68 85.0 30.11 2.01 W 1.57 W 6.49 NW No 0.000 No Precipitation 03/20/2019 02:59 PM 03/20/2019 03:29 PM 0.000 0.000 0.000 0.000 0.000 1.24 Clear
03/22/2019 07:11 PM 56.48 54.86 53.78 65.66 45.68 91.0 30.11 2.68 NW 3.36 NW 6.71 NW No 0.000 No Precipitation 03/20/2019 02:59 PM 03/20/2019 03:29 PM 0.000 0.000 0.000 0.000 0.000 1.24 Clear
03/22/2019 07:21 PM 57.02 55.04 53.96 65.66 45.68 88.0 30.11 4.70 N 4.25 N 8.50 N No 0.000 No Precipitation 03/20/2019 02:59 PM 03/20/2019 03:29 PM 0.000 0.000 0.000 0.000 0.000 1.24 Clear
03/22/2019 07:31 PM 57.02 54.86 53.06 65.66 45.68 87.0 30.11 3.36 NW 2.91 N 8.50 N No 0.000 No Precipitation 03/20/2019 02:59 PM 03/20/2019 03:29 PM 0.000 0.000 0.000 0.000 0.000 1.24 Clear
03/22/2019 07:41 PM 57.20 54.50 52.52 65.66 45.68 85.0 30.11 4.03 N 2.68 NW 8.95 N No 0.000 No Precipitation 03/20/2019 02:59 PM 03/20/2019 03:29 PM 0.000 0.000 0.000 0.000 0.000 1.24 Clear
03/22/2019 07:51 PM 57.02 54.86 53.60 65.66 45.68 88.0 30.11 3.13 NW 3.36 NW 6.71 N No 0.000 No Precipitation 03/20/2019 02:59 PM 03/20/2019 03:29 PM 0.000 0.000 0.000 0.000 0.000 1.24 Clear
03/22/2019 08:01 PM 56.84 55.22 53.78 65.66 45.68 91.0 30.11 2.91 NW 2.46 NW 6.49 N No 0.000 No Precipitation 03/20/2019 02:59 PM 03/20/2019 03:29 PM 0.000 0.000 0.000 0.000 0.000 1.24 Clear
03/22/2019 08:11 PM 56.48 55.40 54.50 65.66 45.68 94.0 30.11 3.13 NW 2.46 W 4.47 NW No 0.000 No Precipitation 03/20/2019 02:59 PM 03/20/2019 03:29 PM 0.000 0.000 0.000 0.000 0.000 1.24 Clear
03/22/2019 08:21 PM 56.30 55.04 54.50 65.66 45.68 94.0 30.11 2.91 NW 3.80 W 4.03 N No 0.000 No Precipitation 03/20/2019 02:59 PM 03/20/2019 03:29 PM 0.000 0.000 0.000 0.000 0.000 1.24 Clear
03/22/2019 08:31 PM 55.94 54.68 53.60 65.66 45.68 93.0 30.11 3.58 NW 3.58 NW 5.37 W No 0.000 No Precipitation 03/20/2019 02:59 PM 03/20/2019 03:29 PM 0.000 0.000 0.000 0.000 0.000 1.24 Clear
03/22/2019 08:41 PM 55.40 54.50 53.78 65.66 45.68 95.0 30.11 3.80 NW 4.47 NW 6.49 NW Yes 0.000 No Precipitation 03/22/2019 07:38 PM   0.000 0.000 0.000 0.000 0.000 1.24 Clear
03/22/2019 08:52 PM 55.40 55.04 54.68 65.66 45.68 98.0 30.11 1.79 W 1.79 N 5.59 N Yes 0.000 No Precipitation 03/22/2019 07:38 PM   0.000 0.000 0.000 0.000 0.000 1.24 Clear
03/22/2019 09:01 PM 55.40 55.04 54.50 65.66 45.68 98.0 30.11 2.01 NW 2.01 W 8.05 NW No 0.000 No Precipitation 03/22/2019 07:38 PM 03/22/2019 07:53 PM 0.000 0.000 0.000 0.000 0.000 1.24 Clear
03/22/2019 09:11 PM 55.22 54.86 54.68 65.66 45.68 99.0 30.11 2.68 NW 2.24 W 6.26 NW No 0.000 No Precipitation 03/22/2019 07:38 PM 03/22/2019 07:53 PM 0.000 0.000 0.000 0.000 0.000 1.24 Clear
03/22/2019 09:21 PM 55.04 55.04 55.22 65.66 45.68 100.0 30.12 2.24 W 1.34 SW 4.70 N No 0.000 No Precipitation 03/22/2019 07:38 PM 03/22/2019 07:53 PM 0.000 0.000 0.000 0.000 0.000 1.24 Clear
03/22/2019 09:31 PM 54.68 54.86 55.04 65.66 45.68 100.0 30.12 3.13 NW 2.91 W 4.92 NW No 0.000 No Precipitation 03/22/2019 07:38 PM 03/22/2019 07:53 PM 0.000 0.000 0.000 0.000 0.000 1.24 Clear
03/22/2019 09:41 PM 54.50 54.68 54.86 65.66 45.68 100.0 30.12 3.36 NW 2.46 NW 4.47 NW No 0.000 No Precipitation 03/22/2019 07:38 PM 03/22/2019 07:53 PM 0.000 0.000 0.000 0.000 0.000 1.24 Clear
03/22/2019 09:51 PM 54.14 54.50 54.50 65.66 45.68 100.0 30.12 4.92 NW 5.37 NW 6.93 NW No 0.000 No Precipitation 03/22/2019 07:38 PM 03/22/2019 07:53 PM 0.000 0.000 0.000 0.000 0.000 1.24 Clear
03/22/2019 10:01 PM 53.96 54.14 54.32 65.66 45.68 100.0 30.12 4.47 NW 3.80 NW 8.28 NW No 0.000 No Precipitation 03/22/2019 07:38 PM 03/22/2019 07:53 PM 0.000 0.000 0.000 0.000 0.000 1.24 Clear
03/22/2019 10:11 PM 53.78 54.14 54.32 65.66 45.68 100.0 30.12 3.80 NW 4.70 NW 7.16 NW Yes 0.001 Rain Slight 03/22/2019 09:04 PM   0.000 0.000 0.000 0.000 0.000 1.24 Clear
03/22/2019 10:21 PM 53.78 54.14 54.32 65.66 45.68 100.0 30.13 3.80 NW 4.25 NW 6.04 NW Yes 0.001 Rain Slight 03/22/2019 09:04 PM   0.004 0.004 0.004 0.004 0.004 1.24 Clear
03/22/2019 10:31 PM 53.96 54.50 54.86 65.66 45.68 100.0 30.13 2.68 NW 1.79 NW 5.59 NW Yes 0.000 No Precipitation 03/22/2019 09:04 PM   0.004 0.004 0.004 0.004 0.004 1.24 Clear
03/22/2019 10:41 PM 53.96 54.68 55.04 65.66 45.68 100.0 30.13 3.58 NW 5.14 NW 5.59 N No 0.000 No Precipitation 03/22/2019 09:04 PM 03/22/2019 09:38 PM 0.004 0.004 0.004 0.004 0.004 1.24 Clear
03/22/2019 10:51 PM 54.14 54.86 55.22 65.66 45.68 100.0 30.13 4.47 N 6.26 N 6.71 N Yes 0.001 Rain Slight 03/22/2019 09:41 PM   0.004 0.004 0.004 0.004 0.004 1.24 Clear
03/22/2019 11:01 PM 54.32 54.14 54.14 65.66 45.68 99.0 30.13 6.26 N 6.26 N 9.62 N Yes 0.000 No Precipitation 03/22/2019 09:41 PM   0.008 0.008 0.008 0.008 0.008 1.24 Clear
03/22/2019 11:11 PM 54.50 54.50 54.68 65.66 45.68 100.0 30.13 6.26 N 5.37 N 9.17 N Yes 0.000 No Precipitation 03/22/2019 09:41 PM   0.004 0.008 0.008 0.008 0.008 1.24 Clear
03/22/2019 11:21 PM 54.32 54.50 54.50 65.66 45.68 100.0 30.13 4.70 NE 5.14 N 8.50 N Yes 0.002 Rain Slight 03/22/2019 09:41 PM   0.004 0.008 0.008 0.008 0.008 1.24 Clear
03/22/2019 11:51 PM 54.14 54.32 54.50 65.66 45.68 100.0 30.12 6.04 N 6.71 N 8.72 NE Yes 0.002 Rain Slight 03/22/2019 09:41 PM   0.004 0.012 0.012 0.012 0.012 1.24 Clear